createdAt,value
2023-03-13T04:58:02.062Z,0.1
2023-03-13T05:00:01.566Z,0.2
2023-03-13T05:01:00.459Z,0.3
2023-03-13T05:03:00.829Z,0.4
2023-03-13T05:04:00.421Z,0.5
2023-03-13T05:06:00.411Z,0.7
2023-03-13T05:07:00.446Z,0.8
2023-03-13T05:08:00.626Z,1.0
2023-03-13T05:09:00.420Z,1.2
2023-03-13T05:10:00.424Z,1.4
2023-03-13T05:11:00.413Z,1.7
2023-03-13T05:12:00.448Z,1.9
2023-03-13T05:13:00.635Z,2.3
2023-03-13T05:14:00.449Z,2.7
2023-03-13T05:16:00.459Z,3.8
2023-03-13T05:17:00.446Z,4.5
2023-03-13T05:18:06.456Z,5.1
2023-03-13T05:19:00.416Z,6.2
2023-03-13T05:20:00.438Z,7.3
2023-03-13T05:21:00.420Z,8.8
2023-03-13T05:22:00.457Z,10.3
2023-03-13T05:23:01.766Z,11.8
2023-03-13T05:24:00.679Z,14.3
2023-03-13T05:25:00.437Z,16.7
2023-03-13T05:26:00.418Z,20.0
2023-03-13T05:27:00.460Z,23.3
2023-03-13T05:28:00.628Z,26.3
2023-03-13T05:29:00.425Z,32.1
2023-03-13T05:30:01.372Z,37.8
2023-03-13T05:31:00.748Z,45.4
2023-03-13T05:32:00.563Z,53.0
2023-03-13T05:33:01.845Z,60.6
2023-03-13T05:34:00.432Z,71.3
2023-03-13T05:35:00.695Z,81.9
2023-03-13T05:36:00.465Z,95.1
2023-03-13T05:37:00.460Z,108.2
2023-03-13T05:38:00.758Z,121.3
2023-03-13T05:39:00.423Z,137.0
2023-03-13T05:40:00.445Z,152.7
2023-03-13T05:41:00.429Z,173.9
2023-03-13T05:42:00.458Z,195.2
2023-03-13T05:43:05.632Z,216.5
2023-03-13T05:44:00.435Z,244.5
2023-03-13T05:45:01.500Z,272.6
2023-03-13T05:46:00.573Z,305.9
2023-03-13T05:47:02.398Z,339.1
2023-03-13T05:48:01.167Z,372.4
2023-03-13T05:49:00.430Z,412.9
2023-03-13T05:50:00.440Z,453.5
2023-03-13T05:51:00.427Z,510.1
2023-03-13T05:52:05.717Z,566.8
2023-03-13T05:53:06.105Z,623.5
2023-03-13T05:54:01.516Z,674.9
2023-03-13T05:55:00.499Z,726.4
2023-03-13T05:56:00.422Z,786.5
2023-03-13T05:57:00.453Z,846.7
2023-03-13T05:58:00.913Z,906.8
2023-03-13T05:59:00.420Z,953.2
2023-03-13T06:00:01.065Z,999.6
2023-03-13T06:01:00.421Z,1043.1
2023-03-13T06:02:00.685Z,1086.7
2023-03-13T06:03:01.268Z,1130.2
2023-03-13T06:04:00.567Z,1159.3
2023-03-13T06:05:00.437Z,1188.3
2023-03-13T06:06:00.420Z,1224.0
2023-03-13T06:07:00.452Z,1259.7
2023-03-13T06:08:00.825Z,1295.3
2023-03-13T06:09:00.420Z,1358.5
2023-03-13T06:10:00.958Z,1421.7
2023-03-13T06:11:00.430Z,1467.3
2023-03-13T06:12:00.572Z,1512.8
2023-03-13T06:13:10.649Z,1558.3
2023-03-13T06:14:00.421Z,1663.7
2023-03-13T06:15:01.054Z,1769.1
2023-03-13T06:16:00.484Z,1897.5
2023-03-13T06:17:00.463Z,2025.8
2023-03-13T06:18:01.697Z,2154.1
2023-03-13T06:19:00.422Z,2377.1
2023-03-13T06:20:00.439Z,2600.0
2023-03-13T06:21:00.447Z,2897.1
2023-03-13T06:22:00.455Z,3194.3
2023-03-13T06:23:00.663Z,3491.4
2023-03-13T06:24:00.426Z,3898.9
2023-03-13T06:25:01.050Z,4306.5
2023-03-13T06:26:00.428Z,4852.7
2023-03-13T06:27:00.746Z,5398.9
2023-03-13T06:28:01.725Z,5945.1
2023-03-13T06:29:05.440Z,6497.1
2023-03-13T06:30:01.075Z,7049.2
2023-03-13T06:31:00.512Z,7501.5
2023-03-13T06:32:00.614Z,7953.7
2023-03-13T06:33:06.300Z,8406.0
2023-03-13T06:34:00.428Z,8666.5
2023-03-13T06:35:01.012Z,8926.9
2023-03-13T06:36:00.708Z,9082.1
2023-03-13T06:37:00.507Z,9237.2
2023-03-13T06:38:00.644Z,9392.3
2023-03-13T06:39:00.427Z,9332.1
2023-03-13T06:40:00.691Z,9271.9
2023-03-13T06:41:00.432Z,8952.9
2023-03-13T06:42:00.460Z,8633.9
2023-03-13T06:43:01.215Z,8314.9
2023-03-13T06:44:00.465Z,7955.3
2023-03-13T06:45:01.067Z,7595.7
2023-03-13T06:46:00.428Z,7370.4
2023-03-13T06:47:00.570Z,7145.1
2023-03-13T06:48:00.704Z,6919.7
2023-03-13T06:49:00.523Z,7026.5
2023-03-13T06:50:00.441Z,7133.3
2023-03-13T06:51:00.452Z,7117.3
2023-03-13T06:52:00.475Z,7101.3
2023-03-13T06:53:00.643Z,7085.3
2023-03-13T06:54:00.447Z,7069.3
2023-03-13T06:55:00.996Z,7053.2
2023-03-13T06:56:00.440Z,7239.7
2023-03-13T06:57:00.468Z,7426.3
2023-03-13T06:58:00.660Z,7612.8
2023-03-13T06:59:00.436Z,7713.9
2023-03-13T07:00:01.032Z,7815.1
2023-03-13T07:01:00.511Z,8034.4
2023-03-13T07:02:00.937Z,8253.7
2023-03-13T07:03:00.899Z,8473.1
2023-03-13T07:04:01.505Z,8848.4
2023-03-13T07:05:00.481Z,9223.7
2023-03-13T07:06:00.445Z,9865.1
2023-03-13T07:07:00.475Z,10506.5
2023-03-13T07:08:01.239Z,11147.9
2023-03-13T07:09:00.446Z,11535.3
2023-03-13T07:10:00.454Z,11922.6
2023-03-13T07:11:00.453Z,12118.9
2023-03-13T07:12:00.496Z,12315.3
2023-03-13T07:13:00.912Z,12511.6
2023-03-13T07:14:13.580Z,12847.3
2023-03-13T07:15:01.316Z,13182.9
2023-03-13T07:16:00.498Z,13427.9
2023-03-13T07:17:00.537Z,13672.8
2023-03-13T07:18:05.680Z,13917.7
2023-03-13T07:19:00.456Z,13981.5
2023-03-13T07:20:01.477Z,14045.3
2023-03-13T07:21:00.484Z,13957.3
2023-03-13T07:22:00.559Z,13869.3
2023-03-13T07:23:05.699Z,13781.3
2023-03-13T07:24:00.734Z,13918.9
2023-03-13T07:25:00.482Z,14056.4
2023-03-13T07:26:00.451Z,14129.1
2023-03-13T07:27:07.018Z,14201.9
2023-03-13T07:28:00.673Z,14274.6
2023-03-13T07:29:00.462Z,14300.1
2023-03-13T07:30:01.367Z,14325.5
2023-03-13T07:31:00.465Z,14232.7
2023-03-13T07:32:00.687Z,14139.8
2023-03-13T07:33:00.771Z,14046.9
2023-03-13T07:34:00.462Z,13759.5
2023-03-13T07:35:01.387Z,13472.1
2023-03-13T07:36:00.510Z,13142.6
2023-03-13T07:37:00.520Z,12813.1
2023-03-13T07:38:00.927Z,12483.5
2023-03-13T07:39:00.463Z,12323.3
2023-03-13T07:40:00.465Z,12163.1
2023-03-13T07:41:00.478Z,12216.4
2023-03-13T07:42:00.510Z,12269.7
2023-03-13T07:43:00.668Z,12322.9
2023-03-13T07:44:00.461Z,12312.6
2023-03-13T07:45:01.213Z,12302.3
2023-03-13T07:46:00.468Z,12100.6
2023-03-13T07:47:00.646Z,11898.9
2023-03-13T07:48:01.763Z,11697.3
2023-03-13T07:49:00.468Z,11611.5
2023-03-13T07:50:01.457Z,11525.7
2023-03-13T07:51:00.463Z,11524.8
2023-03-13T07:52:00.534Z,11523.9
2023-03-13T07:53:02.804Z,11523.1
2023-03-13T07:54:00.466Z,11644.7
2023-03-13T07:55:00.478Z,11766.3
2023-03-13T07:56:00.463Z,11780.8
2023-03-13T07:57:01.523Z,11795.3
2023-03-13T07:58:00.671Z,11809.9
2023-03-13T07:59:00.468Z,12114.6
2023-03-13T08:00:01.427Z,12419.3
2023-03-13T08:01:00.470Z,13192.8
2023-03-13T08:02:00.548Z,13966.3
2023-03-13T08:03:00.754Z,14739.7
2023-03-13T08:04:00.491Z,15089.7
2023-03-13T08:05:01.023Z,15439.6
2023-03-13T08:06:00.470Z,15823.9
2023-03-13T08:07:00.506Z,16208.3
2023-03-13T08:08:00.935Z,16592.6
2023-03-13T08:09:00.780Z,16694.9
2023-03-13T08:10:01.024Z,16797.3
2023-03-13T08:11:00.502Z,17246.5
2023-03-13T08:12:00.497Z,17695.7
2023-03-13T08:13:00.675Z,18144.9
2023-03-13T08:14:00.467Z,18314.1
2023-03-13T08:15:01.094Z,18483.4
2023-03-13T08:16:00.473Z,18395.5
2023-03-13T08:17:00.521Z,18307.5
2023-03-13T08:18:00.702Z,18219.6
2023-03-13T08:19:00.484Z,18930.0
2023-03-13T08:20:01.227Z,19640.4
2023-03-13T08:21:01.491Z,20769.1
2023-03-13T08:22:00.508Z,21897.7
2023-03-13T08:23:01.027Z,23026.4
2023-03-13T08:24:00.461Z,23636.4
2023-03-13T08:25:01.050Z,24246.4
2023-03-13T08:26:00.472Z,24752.7
2023-03-13T08:27:00.498Z,25259.1
2023-03-13T08:28:02.443Z,25765.4
2023-03-13T08:29:00.476Z,26155.3
2023-03-13T08:30:06.032Z,26545.3
2023-03-13T08:31:00.530Z,26988.7
2023-03-13T08:32:00.521Z,27432.1
2023-03-13T08:33:01.476Z,27875.5
2023-03-13T08:34:00.460Z,27908.7
2023-03-13T08:35:01.024Z,27942.0
2023-03-13T08:36:00.527Z,27242.9
2023-03-13T08:37:00.485Z,26543.7
2023-03-13T08:38:00.930Z,25844.6
2023-03-13T08:39:00.472Z,26314.3
2023-03-13T08:40:01.387Z,26783.9
2023-03-13T08:41:00.496Z,27052.4
2023-03-13T08:42:00.501Z,27320.9
2023-03-13T08:43:00.679Z,27589.3
2023-03-13T08:44:00.482Z,28045.9
2023-03-13T08:45:01.129Z,28502.5
2023-03-13T08:46:00.498Z,29302.5
2023-03-13T08:47:00.515Z,30102.4
2023-03-13T08:48:00.678Z,30902.3
2023-03-13T08:49:00.472Z,31892.2
2023-03-13T08:51:00.480Z,33352.5
2023-03-13T08:52:00.505Z,33822.9
2023-03-13T08:53:00.685Z,34293.3
2023-03-13T08:54:00.474Z,34259.5
2023-03-13T08:55:01.373Z,34225.7
2023-03-13T08:56:00.490Z,34832.3
2023-03-13T08:57:00.535Z,35438.9
2023-03-13T08:58:00.685Z,36045.5
2023-03-13T08:59:00.485Z,36434.1
2023-03-13T09:00:01.236Z,36822.7
2023-03-13T09:01:00.483Z,36427.3
2023-03-13T09:02:01.005Z,36031.9
2023-03-13T09:03:00.950Z,35636.5
2023-03-13T09:04:04.102Z,35513.7
2023-03-13T09:05:02.130Z,35391.0
2023-03-13T09:06:00.501Z,36441.9
2023-03-13T09:07:00.516Z,37492.9
2023-03-13T09:08:01.169Z,38543.8
2023-03-13T09:09:00.506Z,38834.9
2023-03-13T09:10:00.509Z,39126.1
2023-03-13T09:11:00.765Z,39043.5
2023-03-13T09:12:00.517Z,38960.9
2023-03-13T09:13:00.727Z,38878.3
2023-03-13T09:14:00.504Z,38769.9
2023-03-13T09:16:00.575Z,39390.1
2023-03-13T09:17:00.516Z,40118.7
2023-03-13T09:18:01.325Z,40847.2
2023-03-13T09:19:00.825Z,41145.7
2023-03-13T09:20:01.385Z,41444.3
2023-03-13T09:21:00.489Z,41903.8
2023-03-13T09:22:00.516Z,42363.3
2023-03-13T09:23:01.061Z,42822.9
2023-03-13T09:24:00.495Z,44212.8
2023-03-13T09:25:01.114Z,45602.7
2023-03-13T09:26:00.497Z,47249.5
2023-03-13T09:27:01.664Z,48896.3
2023-03-13T09:28:01.016Z,50543.1
2023-03-13T09:29:00.534Z,51416.5
2023-03-13T09:30:01.308Z,52289.9
2023-03-13T09:31:00.523Z,51648.9
2023-03-13T09:32:05.639Z,51007.8
2023-03-13T09:33:01.678Z,50366.7
2023-03-13T09:34:00.494Z,49063.9
2023-03-13T09:35:00.549Z,47761.0
2023-03-13T09:36:00.650Z,45760.5
2023-03-13T09:37:00.498Z,43760.1
2023-03-13T09:38:01.711Z,41759.6
2023-03-13T09:39:00.517Z,39729.9
2023-03-13T09:40:01.390Z,37700.3
2023-03-13T09:41:06.113Z,36015.7
2023-03-13T09:42:00.508Z,34331.1
2023-03-13T09:43:00.900Z,32646.5
2023-03-13T09:44:00.519Z,31514.9
2023-03-13T09:45:01.240Z,30383.4
2023-03-13T09:46:00.516Z,31124.1
2023-03-13T09:47:00.574Z,31864.7
2023-03-13T09:48:01.087Z,32605.4
2023-03-13T09:49:00.540Z,35280.5
2023-03-13T09:50:00.576Z,37955.5
2023-03-13T09:51:00.759Z,40763.9
2023-03-13T09:52:00.506Z,43572.2
2023-03-13T09:53:01.045Z,46380.5
2023-03-13T09:54:00.520Z,48954.3
2023-03-13T09:55:00.571Z,51528.0
2023-03-13T09:56:00.500Z,51917.5
2023-03-13T09:57:00.497Z,52307.1
2023-03-13T09:58:00.705Z,52696.6
2023-03-13T09:59:00.522Z,54074.2
2023-03-13T10:00:01.149Z,55451.8
2023-03-13T10:01:00.519Z,56812.8
2023-03-13T10:02:00.534Z,58173.8
2023-03-13T10:03:02.210Z,59534.8
2023-03-13T10:04:00.907Z,57163.9
2023-03-13T10:05:00.511Z,54792.9
2023-03-13T10:06:00.492Z,52989.2
2023-03-13T10:07:00.494Z,51185.5
2023-03-13T10:08:00.762Z,49381.7
2023-03-13T10:09:00.525Z,48530.5
2023-03-13T10:10:00.776Z,47679.3
2023-03-13T10:11:00.576Z,47103.1
2023-03-13T10:12:05.494Z,46526.8
2023-03-13T10:13:01.539Z,45950.5
2023-03-13T10:14:00.525Z,44651.1
2023-03-13T10:15:01.449Z,43351.6
2023-03-13T10:16:00.535Z,41916.7
2023-03-13T10:17:00.519Z,40481.9
2023-03-13T10:18:00.709Z,39047.0
2023-03-13T10:19:00.525Z,40612.7
2023-03-13T10:20:00.505Z,42178.5
2023-03-13T10:21:00.528Z,43982.2
2023-03-13T10:22:00.519Z,45785.9
2023-03-13T10:23:07.188Z,47589.7
2023-03-13T10:24:00.532Z,48486.0
2023-03-13T10:25:00.543Z,49382.3
2023-03-13T10:26:00.757Z,51346.8
2023-03-13T10:27:00.506Z,53311.3
2023-03-13T10:28:00.701Z,55275.7
2023-03-13T10:29:00.533Z,57393.5
2023-03-13T10:30:01.268Z,59511.2
2023-03-13T10:31:00.553Z,60982.3
2023-03-13T10:32:00.530Z,62453.5
2023-03-13T10:33:01.048Z,63924.6
2023-03-13T10:34:00.566Z,64729.8
2023-03-13T10:35:01.324Z,65535.0
2023-03-13T10:45:01.468Z,65535.0
2023-03-13T10:59:00.536Z,65359.9
2023-03-13T11:00:04.785Z,65184.9
2023-03-13T11:01:00.516Z,64406.0
2023-03-13T11:02:00.516Z,63627.1
2023-03-13T11:03:00.690Z,62848.3
2023-03-13T11:14:00.790Z,63023.3
2023-03-13T11:15:01.771Z,63198.4
2023-03-13T11:16:00.563Z,63977.3
2023-03-13T11:17:00.525Z,64756.1
2023-03-13T11:18:00.520Z,65535.0
2023-03-13T11:30:02.919Z,65535.0
2023-03-13T11:45:01.440Z,65535.0
2023-03-13T12:00:04.624Z,65535.0
2023-03-13T12:15:02.606Z,65535.0
2023-03-13T12:45:02.028Z,65535.0
2023-03-13T13:00:04.419Z,65535.0
2023-03-13T13:30:03.005Z,65535.0
2023-03-13T13:45:01.656Z,65535.0
2023-03-13T14:01:05.574Z,65439.5
2023-03-13T14:02:00.663Z,65343.9
2023-03-13T14:03:00.591Z,65248.4
2023-03-13T14:25:07.063Z,65535.0
2023-03-13T14:36:01.971Z,64472.8
2023-03-13T14:37:15.156Z,63574.1
2023-03-13T14:38:01.712Z,62803.7
2023-03-13T14:39:00.725Z,62495.7
2023-03-13T14:40:03.854Z,62005.5
2023-03-13T14:41:00.965Z,61243.9
2023-03-13T14:42:00.690Z,60482.3
2023-03-13T14:43:00.696Z,59720.7
2023-03-13T14:45:01.368Z,59720.7
2023-03-13T14:46:01.193Z,59572.8
2023-03-13T14:47:00.725Z,59424.9
2023-03-13T14:48:00.688Z,59276.9
2023-03-13T14:49:00.779Z,58866.3
2023-03-13T14:50:00.724Z,58455.7
2023-03-13T14:51:14.999Z,58731.7
2023-03-13T14:52:00.690Z,59007.6
2023-03-13T14:53:00.686Z,59283.5
2023-03-13T14:54:00.693Z,58980.5
2023-03-13T14:55:01.292Z,58677.4
2023-03-13T14:56:01.017Z,58502.1
2023-03-13T14:57:00.715Z,58326.9
2023-03-13T14:58:00.747Z,58151.6
2023-03-13T14:59:00.686Z,56661.7
2023-03-13T15:00:01.347Z,55171.7
2023-03-13T15:01:02.595Z,53375.5
2023-03-13T15:02:00.757Z,51579.2
2023-03-13T15:03:00.793Z,49782.9
2023-03-13T15:04:00.723Z,48197.9
2023-03-13T15:05:00.841Z,46612.9
2023-03-13T15:06:01.019Z,44934.1
2023-03-13T15:07:00.683Z,43255.2
2023-03-13T15:08:00.971Z,41576.3
2023-03-13T15:09:00.686Z,39791.4
2023-03-13T15:10:02.043Z,38006.5
2023-03-13T15:11:00.891Z,37006.5
2023-03-13T15:12:00.713Z,36006.5
2023-03-13T15:13:00.866Z,35006.5
2023-03-13T15:14:00.685Z,34425.9
2023-03-13T15:15:01.965Z,33845.3
2023-03-13T15:16:01.143Z,33638.5
2023-03-13T15:17:00.687Z,33431.7
2023-03-13T15:18:00.688Z,33224.9
2023-03-13T15:19:06.783Z,33324.1
2023-03-13T15:20:00.730Z,33423.3
2023-03-13T15:21:01.196Z,33570.4
2023-03-13T15:22:00.688Z,33717.5
2023-03-13T15:23:00.697Z,33864.7
2023-03-13T15:24:00.689Z,34128.4
2023-03-13T15:25:08.654Z,34392.1
2023-03-13T15:26:00.925Z,33861.6
2023-03-13T15:27:01.777Z,33331.1
2023-03-13T15:28:00.691Z,32800.5
2023-03-13T15:29:01.081Z,32482.9
2023-03-13T15:31:07.508Z,32112.4
2023-03-13T15:32:00.773Z,32059.5
2023-03-13T15:33:00.788Z,32006.5
2023-03-13T15:34:05.723Z,31458.6
2023-03-13T15:35:01.793Z,30910.7
2023-03-13T15:36:00.928Z,30331.6
2023-03-13T15:37:00.701Z,29752.5
2023-03-13T15:38:00.713Z,29173.5
2023-03-13T15:39:00.699Z,28841.9
2023-03-13T15:40:00.742Z,28510.4
2023-03-13T15:41:02.632Z,27958.1
2023-03-13T15:42:00.687Z,27405.7
2023-03-13T15:43:00.735Z,26853.4
2023-03-13T15:44:05.746Z,26664.9
2023-03-13T15:46:04.367Z,26208.0
2023-03-13T15:47:00.727Z,25939.5
2023-03-13T15:48:00.722Z,25671.1
2023-03-13T15:49:00.713Z,25850.3
2023-03-13T15:50:00.755Z,26029.5
2023-03-13T15:51:06.485Z,26307.3
2023-03-13T15:52:00.694Z,26585.2
2023-03-13T15:53:00.716Z,26863.1
2023-03-13T15:54:00.700Z,26743.8
2023-03-13T15:55:00.990Z,26624.5
2023-03-13T15:56:00.914Z,26739.6
2023-03-13T15:57:00.701Z,26854.7
2023-03-13T15:58:00.779Z,26969.7
2023-03-13T15:59:00.709Z,26577.3
2023-03-13T16:01:02.987Z,25686.9
2023-03-13T16:02:00.769Z,25188.8
2023-03-13T16:03:00.704Z,24690.7
2023-03-13T16:04:00.814Z,23648.5
2023-03-13T16:05:00.751Z,22606.3
2023-03-13T16:06:00.912Z,21624.7
2023-03-13T16:07:00.969Z,20643.0
2023-03-13T16:08:00.877Z,19661.3
2023-03-13T16:09:00.715Z,19088.4
2023-03-13T16:10:00.815Z,18515.5
2023-03-13T16:11:00.943Z,17999.9
2023-03-13T16:12:00.705Z,17484.3
2023-03-13T16:13:00.712Z,16968.7
2023-03-13T16:14:00.726Z,16399.9
2023-03-13T16:15:01.889Z,15831.2
2023-03-13T16:16:00.948Z,15154.5
2023-03-13T16:17:00.780Z,14477.9
2023-03-13T16:18:00.774Z,13801.2
2023-03-13T16:19:00.734Z,13578.6
2023-03-13T16:20:00.744Z,13356.0
2023-03-13T16:21:00.949Z,13282.3
2023-03-13T16:22:00.714Z,13208.7
2023-03-13T16:23:00.713Z,13135.0
2023-03-13T16:24:00.722Z,12987.2
2023-03-13T16:25:00.719Z,12839.4
2023-03-13T16:26:01.311Z,12756.7
2023-03-13T16:27:00.848Z,12673.9
2023-03-13T16:28:00.724Z,12591.2
2023-03-13T16:29:00.711Z,12647.5
2023-03-13T16:31:00.939Z,12730.6
2023-03-13T16:32:00.749Z,12757.3
2023-03-13T16:33:00.808Z,12784.1
2023-03-13T16:34:00.764Z,12713.6
2023-03-13T16:35:01.265Z,12643.1
2023-03-13T16:36:02.000Z,12435.1
2023-03-13T16:37:00.718Z,12227.0
2023-03-13T16:38:00.712Z,12018.9
2023-03-13T16:39:00.799Z,11722.8
2023-03-13T16:40:00.741Z,11426.7
2023-03-13T16:41:00.926Z,11174.1
2023-03-13T16:42:00.725Z,10921.6
2023-03-13T16:43:00.718Z,10669.1
2023-03-13T16:44:00.919Z,10308.3
2023-03-13T16:45:01.565Z,9947.5
2023-03-13T16:46:02.390Z,9655.5
2023-03-13T16:47:05.737Z,9363.5
2023-03-13T16:48:00.746Z,9071.5
2023-03-13T16:49:00.719Z,8714.3
2023-03-13T16:50:00.734Z,8357.1
2023-03-13T16:51:00.927Z,8049.1
2023-03-13T16:52:00.722Z,7741.2
2023-03-13T16:53:01.015Z,7433.3
2023-03-13T16:54:00.723Z,7196.7
2023-03-13T16:55:00.746Z,6960.2
2023-03-13T16:56:01.690Z,6631.9
2023-03-13T16:57:00.722Z,6303.7
2023-03-13T16:58:00.712Z,5975.4
2023-03-13T16:59:00.715Z,5716.4
2023-03-13T17:00:01.645Z,5457.4
2023-03-13T17:01:05.542Z,5232.9
2023-03-13T17:02:00.720Z,5008.5
2023-03-13T17:03:00.784Z,4784.0
2023-03-13T17:04:00.815Z,4606.5
2023-03-13T17:05:01.399Z,4428.9
2023-03-13T17:06:15.751Z,4240.0
2023-03-13T17:07:01.183Z,4051.1
2023-03-13T17:08:00.719Z,3862.1
2023-03-13T17:09:00.784Z,3690.7
